Impacts METAR Board INFO
IDs:

KBOS - Boston/Logan Intl, MA, US

Updated at: 1811 UTC 23 Jan 2018
Potential Impact None Slight Moderate High
Time23/06Z 23/07Z 23/08Z 23/09Z 23/10Z 23/11Z 23/12Z 23/13Z 23/14Z 23/15Z 23/16Z 23/17Z 23/18Z
VIS2 3 1.75 1 0.75 0.5 0.5 0.25 0.25 0.25 0.25 0.5 1
CIG7 7 2 2 2 2 3 2 2 3 3 4 5
CoverOVCOVCOVCOVCOVXOVCOVXOVCOVXOVXOVCOVCOVC
FltCatIFRIFRLIFRLIFRLIFRLIFRLIFRLIFRLIFRLIFRLIFRLIFRIFR
WX-DZ BR-DZ BR-DZ BR-DZ BRDZ BRFGFGFGFGRA FGRA BR+RA BR-RA BR
WDir204010360501036036020201029050
WSpd6 6 7 8 7 5 4 4 3 5 4 5 3
WGst-- -- -- -- -- -- -- -- -- -- -- -- --
Raw hourly METARs
KBOS 230554Z 02006KT 2SM -DZ BR OVC007 04/03 A3013 RMK AO2 SFC VIS 6 SLP202 P0000 60001 T00390033 10039 20033 56023
KBOS 230654Z 04006KT 3SM -DZ BR OVC007 04/04 A3011 RMK AO2 SLP195 P0000 T00390039
KBOS 230803Z 01007KT 1 3/4SM -DZ BR OVC002 02/01 A3007 RMK AO2 TWR VIS 2 P0000 T00170011
KBOS 230854Z 36008KT 1SM R04R/P6000FT -DZ BR OVC002 01/01 A3005 RMK AO2 TWR VIS 2 SLP174 P0000 60000 T00110006 58021
KBOS 230954Z 05007KT 3/4SM R04R/4000FT DZ BR VV002 01/01 A3001 RMK AO2 TWR VIS 2 SLP160 P0000 T00060006
KBOS 231054Z 01005KT 1/2SM R04R/3000V4000FT FG OVC002 00/00 A2998 RMK AO2 TWR VIS 3/4 DZE12 SLP153 P0000 T00000000
KBOS 231154Z 36004KT 1/2SM R04R/2800V4000FT FG VV003 00/00 A2998 RMK AO2 SLP151 DZB03E23 P0000 60000 70006 T00000000 10039 20000 56024
KBOS 231254Z 36004KT 1/4SM R04R/2600V4000FT FG OVC002 00/00 A2994 RMK AO2 SFC VIS 1/2 SLP136 P0001 T00000000
KBOS 231354Z 02003KT 1/4SM R04R/2200V3500FT FG VV002 01/01 A2989 RMK AO2 SLP119 T00060006
KBOS 231454Z 02005KT 1/4SM R04R/2800V5000FT RA FG VV003 01/01 A2984 RMK AO2 SFC VIS 1/2 RAB31 PRESFR SLP104 P0003 60004 T00060006 58047
KBOS 231554Z 01004KT 1/4SM R04R/P6000FT RA BR OVC003 01/01 A2977 RMK AO2 SFC VIS 1 3/4 PRESFR SLP079 P0010 T00110011
KBOS 231654Z 29005KT 1/2SM R04R/4500VP6000FT +RA BR BKN004 OVC010 02/02 A2972 RMK AO2 SFC VIS 1 SLP064 P0026 T00220017
KBOS 231754Z 05003KT 1SM R04R/P6000FT -RA BR BKN005 BKN008 OVC013 02/02 A2964 RMK AO2 SFC VIS 4 PRESFR SLP037 P0028 60068 T00220022 10028 20000 58066